sensor_id;sensor_type;location;lat;lon;timestamp;temperature;humidity
71047;SHT31;58703;48.978;8.982;2023-12-14T00:01:51;5.80;99.99
71047;SHT31;58703;48.978;8.982;2023-12-14T00:04:17;5.75;99.99
71047;SHT31;58703;48.978;8.982;2023-12-14T00:06:43;5.75;99.99
71047;SHT31;58703;48.978;8.982;2023-12-14T00:09:08;5.78;99.99
71047;SHT31;58703;48.978;8.982;2023-12-14T00:11:38;5.84;99.99
71047;SHT31;58703;48.978;8.982;2023-12-14T00:14:05;5.83;99.99
71047;SHT31;58703;48.978;8.982;2023-12-14T00:16:31;5.81;99.99
71047;SHT31;58703;48.978;8.982;2023-12-14T00:18:57;5.80;99.99
71047;SHT31;58703;48.978;8.982;2023-12-14T00:21:23;5.75;99.99
71047;SHT31;58703;48.978;8.982;2023-12-14T00:23:48;5.75;99.99
71047;SHT31;58703;48.978;8.982;2023-12-14T00:26:14;5.77;99.99
71047;SHT31;58703;48.978;8.982;2023-12-14T00:28:39;5.80;99.99
71047;SHT31;58703;48.978;8.982;2023-12-14T00:31:06;5.89;99.99
71047;SHT31;58703;48.978;8.982;2023-12-14T00:33:31;5.93;99.99
71047;SHT31;58703;48.978;8.982;2023-12-14T00:35:57;5.90;99.99
71047;SHT31;58703;48.978;8.982;2023-12-14T00:38:23;5.94;99.99
71047;SHT31;58703;48.978;8.982;2023-12-14T00:40:48;6.10;99.99
71047;SHT31;58703;48.978;8.982;2023-12-14T00:43:14;6.03;99.99
71047;SHT31;58703;48.978;8.982;2023-12-14T00:45:39;6.03;99.99
71047;SHT31;58703;48.978;8.982;2023-12-14T00:48:06;6.05;99.99
71047;SHT31;58703;48.978;8.982;2023-12-14T00:50:32;6.04;99.99
71047;SHT31;58703;48.978;8.982;2023-12-14T00:52:57;6.07;99.99
71047;SHT31;58703;48.978;8.982;2023-12-14T00:55:23;6.17;99.99
71047;SHT31;58703;48.978;8.982;2023-12-14T00:57:49;6.29;99.99
71047;SHT31;58703;48.978;8.982;2023-12-14T01:00:15;6.34;99.99
71047;SHT31;58703;48.978;8.982;2023-12-14T01:02:40;6.22;99.99
71047;SHT31;58703;48.978;8.982;2023-12-14T01:05:06;6.18;99.99
71047;SHT31;58703;48.978;8.982;2023-12-14T01:07:32;6.28;99.99
71047;SHT31;58703;48.978;8.982;2023-12-14T01:09:57;6.35;99.99
71047;SHT31;58703;48.978;8.982;2023-12-14T01:12:23;6.42;99.99
71047;SHT31;58703;48.978;8.982;2023-12-14T01:14:48;6.42;99.99
71047;SHT31;58703;48.978;8.982;2023-12-14T01:17:14;6.44;99.99
71047;SHT31;58703;48.978;8.982;2023-12-14T01:19:40;6.34;99.99
71047;SHT31;58703;48.978;8.982;2023-12-14T01:22:08;6.31;99.99
71047;SHT31;58703;48.978;8.982;2023-12-14T01:24:34;6.29;99.99
71047;SHT31;58703;48.978;8.982;2023-12-14T01:26:59;6.34;99.99
71047;SHT31;58703;48.978;8.982;2023-12-14T01:29:25;6.31;99.99
71047;SHT31;58703;48.978;8.982;2023-12-14T01:31:50;6.20;99.99
71047;SHT31;58703;48.978;8.982;2023-12-14T01:34:16;6.17;99.99
71047;SHT31;58703;48.978;8.982;2023-12-14T01:36:41;6.20;99.99
71047;SHT31;58703;48.978;8.982;2023-12-14T01:39:07;6.20;99.99
71047;SHT31;58703;48.978;8.982;2023-12-14T01:41:33;6.17;99.99
71047;SHT31;58703;48.978;8.982;2023-12-14T01:43:58;6.28;99.99
71047;SHT31;58703;48.978;8.982;2023-12-14T01:46:24;6.20;99.99
71047;SHT31;58703;48.978;8.982;2023-12-14T01:48:49;6.24;99.99
71047;SHT31;58703;48.978;8.982;2023-12-14T01:51:17;6.31;99.99
71047;SHT31;58703;48.978;8.982;2023-12-14T01:53:43;6.41;99.99
71047;SHT31;58703;48.978;8.982;2023-12-14T01:56:08;6.34;99.99
71047;SHT31;58703;48.978;8.982;2023-12-14T01:58:34;6.28;99.99
71047;SHT31;58703;48.978;8.982;2023-12-14T02:01:22;6.29;99.99
71047;SHT31;58703;48.978;8.982;2023-12-14T02:03:51;6.32;99.99
71047;SHT31;58703;48.978;8.982;2023-12-14T02:06:17;6.28;99.99
71047;SHT31;58703;48.978;8.982;2023-12-14T02:08:43;6.22;99.99
71047;SHT31;58703;48.978;8.982;2023-12-14T02:11:08;6.29;99.99
71047;SHT31;58703;48.978;8.982;2023-12-14T02:13:34;6.26;99.99
71047;SHT31;58703;48.978;8.982;2023-12-14T02:15:59;6.17;99.99
71047;SHT31;58703;48.978;8.982;2023-12-14T02:18:25;6.14;99.99
71047;SHT31;58703;48.978;8.982;2023-12-14T02:20:51;6.18;99.99
71047;SHT31;58703;48.978;8.982;2023-12-14T02:23:17;6.18;99.99
71047;SHT31;58703;48.978;8.982;2023-12-14T02:25:42;6.22;99.99
71047;SHT31;58703;48.978;8.982;2023-12-14T02:28:08;6.28;99.99
71047;SHT31;58703;48.978;8.982;2023-12-14T02:30:33;6.36;99.99
71047;SHT31;58703;48.978;8.982;2023-12-14T02:32:59;6.34;99.99
71047;SHT31;58703;48.978;8.982;2023-12-14T02:35:24;6.35;99.99
71047;SHT31;58703;48.978;8.982;2023-12-14T02:37:50;6.38;99.99
71047;SHT31;58703;48.978;8.982;2023-12-14T02:40:16;6.45;99.99
71047;SHT31;58703;48.978;8.982;2023-12-14T02:42:41;6.46;99.99
71047;SHT31;58703;48.978;8.982;2023-12-14T02:45:07;6.55;99.99
71047;SHT31;58703;48.978;8.982;2023-12-14T02:47:33;6.59;99.99
71047;SHT31;58703;48.978;8.982;2023-12-14T02:49:58;6.64;99.99
71047;SHT31;58703;48.978;8.982;2023-12-14T02:52:24;6.62;99.99
71047;SHT31;58703;48.978;8.982;2023-12-14T02:54:49;6.56;99.99
71047;SHT31;58703;48.978;8.982;2023-12-14T02:57:15;6.42;99.99
71047;SHT31;58703;48.978;8.982;2023-12-14T02:59:40;6.29;99.99
71047;SHT31;58703;48.978;8.982;2023-12-14T03:02:06;6.28;99.99
71047;SHT31;58703;48.978;8.982;2023-12-14T03:04:32;6.25;99.99
71047;SHT31;58703;48.978;8.982;2023-12-14T03:06:57;6.25;99.99
71047;SHT31;58703;48.978;8.982;2023-12-14T03:09:31;6.34;99.99
71047;SHT31;58703;48.978;8.982;2023-12-14T03:11:56;6.39;99.99
71047;SHT31;58703;48.978;8.982;2023-12-14T03:14:22;6.41;99.99
71047;SHT31;58703;48.978;8.982;2023-12-14T03:16:48;6.49;99.99
71047;SHT31;58703;48.978;8.982;2023-12-14T03:19:17;6.48;99.99
71047;SHT31;58703;48.978;8.982;2023-12-14T03:21:42;6.42;99.99
71047;SHT31;58703;48.978;8.982;2023-12-14T03:24:08;6.34;99.99
71047;SHT31;58703;48.978;8.982;2023-12-14T03:26:35;6.35;99.99
71047;SHT31;58703;48.978;8.982;2023-12-14T03:29:00;6.29;99.99
71047;SHT31;58703;48.978;8.982;2023-12-14T03:31:26;6.32;99.99
71047;SHT31;58703;48.978;8.982;2023-12-14T03:33:51;6.39;99.99
71047;SHT31;58703;48.978;8.982;2023-12-14T03:36:17;6.46;99.99
71047;SHT31;58703;48.978;8.982;2023-12-14T03:38:43;6.42;99.99
71047;SHT31;58703;48.978;8.982;2023-12-14T03:41:08;6.42;99.99
71047;SHT31;58703;48.978;8.982;2023-12-14T03:43:33;6.32;99.99
71047;SHT31;58703;48.978;8.982;2023-12-14T03:45:59;6.28;99.99
71047;SHT31;58703;48.978;8.982;2023-12-14T03:48:24;6.29;99.99
71047;SHT31;58703;48.978;8.982;2023-12-14T03:50:50;6.34;99.99
71047;SHT31;58703;48.978;8.982;2023-12-14T03:53:16;6.35;99.99
71047;SHT31;58703;48.978;8.982;2023-12-14T03:55:41;6.36;99.99
71047;SHT31;58703;48.978;8.982;2023-12-14T03:58:06;6.35;99.99
71047;SHT31;58703;48.978;8.982;2023-12-14T04:00:32;6.42;99.99
71047;SHT31;58703;48.978;8.982;2023-12-14T04:02:57;6.50;99.99
71047;SHT31;58703;48.978;8.982;2023-12-14T04:05:23;6.50;99.99
71047;SHT31;58703;48.978;8.982;2023-12-14T04:07:49;6.48;99.99
71047;SHT31;58703;48.978;8.982;2023-12-14T04:10:15;6.56;99.99
71047;SHT31;58703;48.978;8.982;2023-12-14T04:12:41;6.50;99.99
71047;SHT31;58703;48.978;8.982;2023-12-14T04:15:08;6.41;99.99
71047;SHT31;58703;48.978;8.982;2023-12-14T04:17:34;6.26;99.99
71047;SHT31;58703;48.978;8.982;2023-12-14T04:20:01;6.25;99.99
71047;SHT31;58703;48.978;8.982;2023-12-14T04:22:26;6.29;99.99
71047;SHT31;58703;48.978;8.982;2023-12-14T04:24:52;6.35;99.99
71047;SHT31;58703;48.978;8.982;2023-12-14T04:27:17;6.41;99.99
71047;SHT31;58703;48.978;8.982;2023-12-14T04:29:43;6.49;99.99
71047;SHT31;58703;48.978;8.982;2023-12-14T04:32:09;6.55;99.99
71047;SHT31;58703;48.978;8.982;2023-12-14T04:34:35;6.52;99.99
71047;SHT31;58703;48.978;8.982;2023-12-14T04:37:01;6.59;99.99
71047;SHT31;58703;48.978;8.982;2023-12-14T04:39:26;6.61;99.99
71047;SHT31;58703;48.978;8.982;2023-12-14T04:41:53;6.65;99.99
71047;SHT31;58703;48.978;8.982;2023-12-14T04:44:19;6.65;99.99
71047;SHT31;58703;48.978;8.982;2023-12-14T04:46:47;6.68;99.99
71047;SHT31;58703;48.978;8.982;2023-12-14T04:49:13;6.71;99.99
71047;SHT31;58703;48.978;8.982;2023-12-14T04:51:38;6.76;99.99
71047;SHT31;58703;48.978;8.982;2023-12-14T04:54:04;6.73;99.99
71047;SHT31;58703;48.978;8.982;2023-12-14T04:56:29;6.66;99.99
71047;SHT31;58703;48.978;8.982;2023-12-14T04:58:55;6.56;99.99
71047;SHT31;58703;48.978;8.982;2023-12-14T05:01:20;6.53;99.99
71047;SHT31;58703;48.978;8.982;2023-12-14T05:03:46;6.50;99.99
71047;SHT31;58703;48.978;8.982;2023-12-14T05:06:12;6.50;99.99
71047;SHT31;58703;48.978;8.982;2023-12-14T05:08:37;6.55;99.99
71047;SHT31;58703;48.978;8.982;2023-12-14T05:11:03;6.57;99.99
71047;SHT31;58703;48.978;8.982;2023-12-14T05:13:30;6.64;99.99
71047;SHT31;58703;48.978;8.982;2023-12-14T05:15:55;6.64;99.99
71047;SHT31;58703;48.978;8.982;2023-12-14T05:18:23;6.64;99.99
71047;SHT31;58703;48.978;8.982;2023-12-14T05:20:50;6.64;99.99
71047;SHT31;58703;48.978;8.982;2023-12-14T05:23:16;6.59;99.99
71047;SHT31;58703;48.978;8.982;2023-12-14T05:25:41;6.55;99.99
71047;SHT31;58703;48.978;8.982;2023-12-14T05:28:07;6.53;99.99
71047;SHT31;58703;48.978;8.982;2023-12-14T05:30:33;6.55;99.99
71047;SHT31;58703;48.978;8.982;2023-12-14T05:32:59;6.57;99.99
71047;SHT31;58703;48.978;8.982;2023-12-14T05:35:24;6.62;99.99
71047;SHT31;58703;48.978;8.982;2023-12-14T05:37:49;6.59;99.99
71047;SHT31;58703;48.978;8.982;2023-12-14T05:40:15;6.57;99.99
71047;SHT31;58703;48.978;8.982;2023-12-14T05:42:41;6.59;99.99
71047;SHT31;58703;48.978;8.982;2023-12-14T05:45:07;6.56;99.99
71047;SHT31;58703;48.978;8.982;2023-12-14T05:47:32;6.57;99.99
71047;SHT31;58703;48.978;8.982;2023-12-14T05:50:03;6.62;99.99
71047;SHT31;58703;48.978;8.982;2023-12-14T05:52:29;6.57;99.99
71047;SHT31;58703;48.978;8.982;2023-12-14T05:54:55;6.61;99.99
71047;SHT31;58703;48.978;8.982;2023-12-14T05:57:20;6.61;99.99
71047;SHT31;58703;48.978;8.982;2023-12-14T05:59:46;6.64;99.99
71047;SHT31;58703;48.978;8.982;2023-12-14T06:02:12;6.68;99.99
71047;SHT31;58703;48.978;8.982;2023-12-14T06:04:38;6.68;99.99
71047;SHT31;58703;48.978;8.982;2023-12-14T06:07:03;6.61;99.99
71047;SHT31;58703;48.978;8.982;2023-12-14T06:09:29;6.59;99.99
71047;SHT31;58703;48.978;8.982;2023-12-14T06:12:03;6.59;99.99
71047;SHT31;58703;48.978;8.982;2023-12-14T06:14:29;6.57;99.99
71047;SHT31;58703;48.978;8.982;2023-12-14T06:16:55;6.59;99.99
71047;SHT31;58703;48.978;8.982;2023-12-14T06:19:21;6.53;99.99
71047;SHT31;58703;48.978;8.982;2023-12-14T06:21:48;6.53;99.99
71047;SHT31;58703;48.978;8.982;2023-12-14T06:24:13;6.52;99.99
71047;SHT31;58703;48.978;8.982;2023-12-14T06:26:45;6.49;99.99
71047;SHT31;58703;48.978;8.982;2023-12-14T06:29:14;6.53;99.99
71047;SHT31;58703;48.978;8.982;2023-12-14T06:31:40;6.46;99.99
71047;SHT31;58703;48.978;8.982;2023-12-14T06:34:06;6.50;99.99
71047;SHT31;58703;48.978;8.982;2023-12-14T06:36:34;6.48;99.99
71047;SHT31;58703;48.978;8.982;2023-12-14T06:39:02;6.48;99.99
71047;SHT31;58703;48.978;8.982;2023-12-14T06:41:28;6.52;99.99
71047;SHT31;58703;48.978;8.982;2023-12-14T06:43:55;6.50;99.99
71047;SHT31;58703;48.978;8.982;2023-12-14T06:46:21;6.57;99.99
71047;SHT31;58703;48.978;8.982;2023-12-14T06:48:47;6.55;99.99
71047;SHT31;58703;48.978;8.982;2023-12-14T06:51:13;6.57;99.99
71047;SHT31;58703;48.978;8.982;2023-12-14T06:53:40;6.62;99.99
71047;SHT31;58703;48.978;8.982;2023-12-14T06:56:07;6.61;99.99
71047;SHT31;58703;48.978;8.982;2023-12-14T06:58:41;6.64;99.99
71047;SHT31;58703;48.978;8.982;2023-12-14T07:01:12;6.64;99.99
71047;SHT31;58703;48.978;8.982;2023-12-14T07:03:42;6.66;99.99
71047;SHT31;58703;48.978;8.982;2023-12-14T07:06:13;6.65;99.99
71047;SHT31;58703;48.978;8.982;2023-12-14T07:08:40;6.65;99.99
71047;SHT31;58703;48.978;8.982;2023-12-14T07:11:07;6.66;99.99
71047;SHT31;58703;48.978;8.982;2023-12-14T07:13:33;6.66;99.99
71047;SHT31;58703;48.978;8.982;2023-12-14T07:18:31;6.62;99.99
71047;SHT31;58703;48.978;8.982;2023-12-14T07:20:57;6.64;99.99
71047;SHT31;58703;48.978;8.982;2023-12-14T07:23:22;6.66;99.99
71047;SHT31;58703;48.978;8.982;2023-12-14T07:25:48;6.65;99.99
71047;SHT31;58703;48.978;8.982;2023-12-14T07:28:14;6.68;99.99
71047;SHT31;58703;48.978;8.982;2023-12-14T07:30:39;6.71;99.99
71047;SHT31;58703;48.978;8.982;2023-12-14T07:33:05;6.69;99.99
71047;SHT31;58703;48.978;8.982;2023-12-14T07:35:31;6.73;99.99
71047;SHT31;58703;48.978;8.982;2023-12-14T07:37:57;6.75;99.99
71047;SHT31;58703;48.978;8.982;2023-12-14T07:40:22;6.77;99.99
71047;SHT31;58703;48.978;8.982;2023-12-14T07:42:48;6.79;99.99
71047;SHT31;58703;48.978;8.982;2023-12-14T07:45:14;6.79;99.99
71047;SHT31;58703;48.978;8.982;2023-12-14T07:47:39;6.76;99.99
71047;SHT31;58703;48.978;8.982;2023-12-14T07:50:06;6.75;99.99
71047;SHT31;58703;48.978;8.982;2023-12-14T07:52:31;6.82;99.99
71047;SHT31;58703;48.978;8.982;2023-12-14T07:54:57;6.82;99.99
71047;SHT31;58703;48.978;8.982;2023-12-14T07:57:23;6.85;99.99
71047;SHT31;58703;48.978;8.982;2023-12-14T07:59:49;6.86;99.99
71047;SHT31;58703;48.978;8.982;2023-12-14T08:02:15;6.89;99.99
71047;SHT31;58703;48.978;8.982;2023-12-14T08:04:41;6.89;99.99
71047;SHT31;58703;48.978;8.982;2023-12-14T08:07:06;6.95;99.99
71047;SHT31;58703;48.978;8.982;2023-12-14T08:09:32;6.93;99.99
71047;SHT31;58703;48.978;8.982;2023-12-14T08:11:58;6.93;99.99
71047;SHT31;58703;48.978;8.982;2023-12-14T08:14:24;7.00;99.99
71047;SHT31;58703;48.978;8.982;2023-12-14T08:16:49;7.00;99.99
71047;SHT31;58703;48.978;8.982;2023-12-14T08:19:15;7.07;99.99
71047;SHT31;58703;48.978;8.982;2023-12-14T08:21:41;7.04;99.99
71047;SHT31;58703;48.978;8.982;2023-12-14T08:24:07;7.01;99.99
71047;SHT31;58703;48.978;8.982;2023-12-14T08:26:32;7.06;99.99
71047;SHT31;58703;48.978;8.982;2023-12-14T08:28:58;7.08;99.99
71047;SHT31;58703;48.978;8.982;2023-12-14T08:31:24;7.07;99.99
71047;SHT31;58703;48.978;8.982;2023-12-14T08:33:50;7.10;99.99
71047;SHT31;58703;48.978;8.982;2023-12-14T08:36:17;7.07;99.99
71047;SHT31;58703;48.978;8.982;2023-12-14T08:38:43;7.10;99.99
71047;SHT31;58703;48.978;8.982;2023-12-14T08:41:13;7.08;99.99
71047;SHT31;58703;48.978;8.982;2023-12-14T08:43:39;7.10;99.99
71047;SHT31;58703;48.978;8.982;2023-12-14T08:46:05;7.16;99.99
71047;SHT31;58703;48.978;8.982;2023-12-14T08:48:31;7.17;99.99
71047;SHT31;58703;48.978;8.982;2023-12-14T08:50:56;7.20;99.99
71047;SHT31;58703;48.978;8.982;2023-12-14T08:53:22;7.27;99.99
71047;SHT31;58703;48.978;8.982;2023-12-14T08:55:48;7.20;99.99
71047;SHT31;58703;48.978;8.982;2023-12-14T08:58:13;7.27;99.99
71047;SHT31;58703;48.978;8.982;2023-12-14T09:00:40;7.35;99.99
71047;SHT31;58703;48.978;8.982;2023-12-14T09:03:05;7.44;99.99
71047;SHT31;58703;48.978;8.982;2023-12-14T09:05:31;7.57;99.99
71047;SHT31;58703;48.978;8.982;2023-12-14T09:07:58;7.59;99.99
71047;SHT31;58703;48.978;8.982;2023-12-14T09:10:24;7.59;99.99
71047;SHT31;58703;48.978;8.982;2023-12-14T09:12:51;7.68;99.99
71047;SHT31;58703;48.978;8.982;2023-12-14T09:15:17;7.71;99.99
71047;SHT31;58703;48.978;8.982;2023-12-14T09:17:42;7.68;99.99
71047;SHT31;58703;48.978;8.982;2023-12-14T09:20:09;7.72;99.99
71047;SHT31;58703;48.978;8.982;2023-12-14T09:22:36;7.82;99.99
71047;SHT31;58703;48.978;8.982;2023-12-14T09:25:01;7.61;99.99
71047;SHT31;58703;48.978;8.982;2023-12-14T09:27:29;7.71;99.99
71047;SHT31;58703;48.978;8.982;2023-12-14T09:29:55;7.78;99.99
71047;SHT31;58703;48.978;8.982;2023-12-14T09:32:21;7.92;99.99
71047;SHT31;58703;48.978;8.982;2023-12-14T09:34:47;8.07;99.99
71047;SHT31;58703;48.978;8.982;2023-12-14T09:37:12;8.02;99.99
71047;SHT31;58703;48.978;8.982;2023-12-14T09:39:39;7.81;99.99
71047;SHT31;58703;48.978;8.982;2023-12-14T09:42:06;7.92;99.99
71047;SHT31;58703;48.978;8.982;2023-12-14T09:44:33;8.01;99.99
71047;SHT31;58703;48.978;8.982;2023-12-14T09:47:01;8.01;99.99
71047;SHT31;58703;48.978;8.982;2023-12-14T09:49:29;8.07;99.99
71047;SHT31;58703;48.978;8.982;2023-12-14T09:51:59;8.20;99.99
71047;SHT31;58703;48.978;8.982;2023-12-14T09:54:26;8.03;99.99
71047;SHT31;58703;48.978;8.982;2023-12-14T09:56:52;8.12;99.99
71047;SHT31;58703;48.978;8.982;2023-12-14T09:59:19;8.05;99.99
71047;SHT31;58703;48.978;8.982;2023-12-14T10:01:45;7.91;99.99
71047;SHT31;58703;48.978;8.982;2023-12-14T10:04:12;7.85;99.99
71047;SHT31;58703;48.978;8.982;2023-12-14T10:06:40;7.85;99.99
71047;SHT31;58703;48.978;8.982;2023-12-14T10:09:06;7.89;99.99
71047;SHT31;58703;48.978;8.982;2023-12-14T10:11:41;7.96;99.99
71047;SHT31;58703;48.978;8.982;2023-12-14T10:14:21;7.86;99.99
71047;SHT31;58703;48.978;8.982;2023-12-14T10:16:48;7.98;99.99
71047;SHT31;58703;48.978;8.982;2023-12-14T10:19:14;7.86;99.99
71047;SHT31;58703;48.978;8.982;2023-12-14T10:21:39;7.98;99.99
71047;SHT31;58703;48.978;8.982;2023-12-14T10:24:06;7.88;99.99
71047;SHT31;58703;48.978;8.982;2023-12-14T10:26:31;7.91;99.99
71047;SHT31;58703;48.978;8.982;2023-12-14T10:28:57;7.85;99.99
71047;SHT31;58703;48.978;8.982;2023-12-14T10:31:23;7.99;99.99
71047;SHT31;58703;48.978;8.982;2023-12-14T10:33:50;7.93;99.99
71047;SHT31;58703;48.978;8.982;2023-12-14T10:36:18;7.89;99.99
71047;SHT31;58703;48.978;8.982;2023-12-14T10:38:48;7.93;99.99
71047;SHT31;58703;48.978;8.982;2023-12-14T10:41:13;8.03;99.99
71047;SHT31;58703;48.978;8.982;2023-12-14T10:43:43;8.01;99.99
71047;SHT31;58703;48.978;8.982;2023-12-14T10:46:09;8.14;99.99
71047;SHT31;58703;48.978;8.982;2023-12-14T10:48:36;8.16;99.99
71047;SHT31;58703;48.978;8.982;2023-12-14T10:51:05;8.17;99.99
71047;SHT31;58703;48.978;8.982;2023-12-14T10:53:32;8.14;99.99
71047;SHT31;58703;48.978;8.982;2023-12-14T10:56:00;8.12;99.99
71047;SHT31;58703;48.978;8.982;2023-12-14T10:58:47;8.47;99.99
71047;SHT31;58703;48.978;8.982;2023-12-14T11:01:14;8.64;99.38
71047;SHT31;58703;48.978;8.982;2023-12-14T11:03:41;8.65;99.62
71047;SHT31;58703;48.978;8.982;2023-12-14T11:08:54;8.68;99.40
71047;SHT31;58703;48.978;8.982;2023-12-14T11:11:20;8.71;97.93
71047;SHT31;58703;48.978;8.982;2023-12-14T11:13:53;8.61;97.70
71047;SHT31;58703;48.978;8.982;2023-12-14T11:16:26;8.67;98.54
71047;SHT31;58703;48.978;8.982;2023-12-14T11:24:34;9.00;99.47
71047;SHT31;58703;48.978;8.982;2023-12-14T11:27:04;8.85;97.36
71047;SHT31;58703;48.978;8.982;2023-12-14T11:29:30;8.94;97.81
71047;SHT31;58703;48.978;8.982;2023-12-14T11:31:55;8.91;97.25
71047;SHT31;58703;48.978;8.982;2023-12-14T11:34:24;8.80;97.27
71047;SHT31;58703;48.978;8.982;2023-12-14T11:36:49;8.87;97.96
71047;SHT31;58703;48.978;8.982;2023-12-14T11:39:15;8.91;97.04
71047;SHT31;58703;48.978;8.982;2023-12-14T11:41:40;8.71;97.47
71047;SHT31;58703;48.978;8.982;2023-12-14T11:44:06;8.63;97.77
71047;SHT31;58703;48.978;8.982;2023-12-14T11:46:32;8.37;97.95
71047;SHT31;58703;48.978;8.982;2023-12-14T11:48:58;7.85;96.32
71047;SHT31;58703;48.978;8.982;2023-12-14T11:51:24;7.40;96.59
71047;SHT31;58703;48.978;8.982;2023-12-14T11:53:51;7.38;97.70
71047;SHT31;58703;48.978;8.982;2023-12-14T11:56:18;7.44;98.32
71047;SHT31;58703;48.978;8.982;2023-12-14T11:58:44;7.61;99.99
71047;SHT31;58703;48.978;8.982;2023-12-14T12:01:18;7.54;99.08
71047;SHT31;58703;48.978;8.982;2023-12-14T12:03:44;7.64;99.55
71047;SHT31;58703;48.978;8.982;2023-12-14T12:06:24;7.77;99.99
71047;SHT31;58703;48.978;8.982;2023-12-14T12:08:50;7.98;99.99
71047;SHT31;58703;48.978;8.982;2023-12-14T12:11:17;7.96;99.99
71047;SHT31;58703;48.978;8.982;2023-12-14T12:13:43;7.96;99.99
71047;SHT31;58703;48.978;8.982;2023-12-14T12:16:09;7.98;99.99
71047;SHT31;58703;48.978;8.982;2023-12-14T12:18:35;8.12;99.99
71047;SHT31;58703;48.978;8.982;2023-12-14T12:21:03;8.19;99.99
71047;SHT31;58703;48.978;8.982;2023-12-14T12:23:31;8.09;99.75
71047;SHT31;58703;48.978;8.982;2023-12-14T12:25:57;8.07;99.14
71047;SHT31;58703;48.978;8.982;2023-12-14T12:28:23;7.93;99.99
71047;SHT31;58703;48.978;8.982;2023-12-14T12:30:50;7.75;99.99
71047;SHT31;58703;48.978;8.982;2023-12-14T12:33:16;7.72;99.99
71047;SHT31;58703;48.978;8.982;2023-12-14T12:35:41;7.57;99.99
71047;SHT31;58703;48.978;8.982;2023-12-14T12:38:07;7.44;99.99
71047;SHT31;58703;48.978;8.982;2023-12-14T12:40:32;7.30;99.99
71047;SHT31;58703;48.978;8.982;2023-12-14T12:42:59;7.27;99.99
71047;SHT31;58703;48.978;8.982;2023-12-14T12:45:24;7.28;99.99
71047;SHT31;58703;48.978;8.982;2023-12-14T12:47:53;7.35;99.99
71047;SHT31;58703;48.978;8.982;2023-12-14T12:50:19;7.43;99.99
71047;SHT31;58703;48.978;8.982;2023-12-14T12:52:46;7.43;99.99
71047;SHT31;58703;48.978;8.982;2023-12-14T12:55:14;7.40;99.99
71047;SHT31;58703;48.978;8.982;2023-12-14T12:57:40;7.31;99.99
71047;SHT31;58703;48.978;8.982;2023-12-14T13:00:09;7.35;99.99
71047;SHT31;58703;48.978;8.982;2023-12-14T13:02:42;7.31;99.99
71047;SHT31;58703;48.978;8.982;2023-12-14T13:05:08;7.41;99.99
71047;SHT31;58703;48.978;8.982;2023-12-14T13:07:34;7.46;99.99
71047;SHT31;58703;48.978;8.982;2023-12-14T13:10:00;7.50;99.99
71047;SHT31;58703;48.978;8.982;2023-12-14T13:12:26;7.52;99.99
71047;SHT31;58703;48.978;8.982;2023-12-14T13:14:51;7.57;99.99
71047;SHT31;58703;48.978;8.982;2023-12-14T13:17:17;7.50;99.81
71047;SHT31;58703;48.978;8.982;2023-12-14T13:19:44;7.58;99.99
71047;SHT31;58703;48.978;8.982;2023-12-14T13:22:10;7.81;99.99
71047;SHT31;58703;48.978;8.982;2023-12-14T13:24:37;7.83;99.99
71047;SHT31;58703;48.978;8.982;2023-12-14T13:27:03;7.72;99.99
71047;SHT31;58703;48.978;8.982;2023-12-14T13:29:29;7.65;99.99
71047;SHT31;58703;48.978;8.982;2023-12-14T13:31:57;7.61;99.99
71047;SHT31;58703;48.978;8.982;2023-12-14T13:34:22;7.64;99.99
71047;SHT31;58703;48.978;8.982;2023-12-14T13:36:48;7.67;99.99
71047;SHT31;58703;48.978;8.982;2023-12-14T13:39:14;7.65;99.99
71047;SHT31;58703;48.978;8.982;2023-12-14T13:41:39;7.72;99.99
71047;SHT31;58703;48.978;8.982;2023-12-14T13:44:05;7.71;99.99
71047;SHT31;58703;48.978;8.982;2023-12-14T13:46:30;7.69;99.99
71047;SHT31;58703;48.978;8.982;2023-12-14T13:48:56;7.62;99.99
71047;SHT31;58703;48.978;8.982;2023-12-14T13:51:22;7.64;99.99
71047;SHT31;58703;48.978;8.982;2023-12-14T13:53:47;7.61;99.99
71047;SHT31;58703;48.978;8.982;2023-12-14T13:56:13;7.64;99.99
71047;SHT31;58703;48.978;8.982;2023-12-14T13:58:39;7.59;99.99
71047;SHT31;58703;48.978;8.982;2023-12-14T14:01:07;7.57;99.99
71047;SHT31;58703;48.978;8.982;2023-12-14T14:03:36;7.48;99.99
71047;SHT31;58703;48.978;8.982;2023-12-14T14:06:04;7.52;99.99
71047;SHT31;58703;48.978;8.982;2023-12-14T14:08:30;7.50;99.99
71047;SHT31;58703;48.978;8.982;2023-12-14T14:10:59;7.43;99.99
71047;SHT31;58703;48.978;8.982;2023-12-14T14:13:24;7.50;99.99
71047;SHT31;58703;48.978;8.982;2023-12-14T14:15:50;7.46;99.99
71047;SHT31;58703;48.978;8.982;2023-12-14T14:18:16;7.41;99.99
71047;SHT31;58703;48.978;8.982;2023-12-14T14:20:42;7.40;99.99
71047;SHT31;58703;48.978;8.982;2023-12-14T14:23:07;7.44;99.99
71047;SHT31;58703;48.978;8.982;2023-12-14T14:25:33;7.43;99.99
71047;SHT31;58703;48.978;8.982;2023-12-14T14:27:59;7.41;99.99
71047;SHT31;58703;48.978;8.982;2023-12-14T14:30:24;7.50;99.99
71047;SHT31;58703;48.978;8.982;2023-12-14T14:32:50;7.52;99.99
71047;SHT31;58703;48.978;8.982;2023-12-14T14:35:16;7.57;99.99
71047;SHT31;58703;48.978;8.982;2023-12-14T14:37:42;7.59;99.99
71047;SHT31;58703;48.978;8.982;2023-12-14T14:40:14;7.50;99.99
71047;SHT31;58703;48.978;8.982;2023-12-14T14:42:40;7.52;99.99
71047;SHT31;58703;48.978;8.982;2023-12-14T14:45:10;7.48;99.99
71047;SHT31;58703;48.978;8.982;2023-12-14T14:47:36;7.50;99.99
71047;SHT31;58703;48.978;8.982;2023-12-14T14:50:03;7.52;99.99
71047;SHT31;58703;48.978;8.982;2023-12-14T14:52:30;7.47;99.90
71047;SHT31;58703;48.978;8.982;2023-12-14T14:54:56;7.47;99.99
71047;SHT31;58703;48.978;8.982;2023-12-14T14:57:24;7.40;99.99
71047;SHT31;58703;48.978;8.982;2023-12-14T14:59:50;7.41;99.99
71047;SHT31;58703;48.978;8.982;2023-12-14T15:02:19;7.38;99.99
71047;SHT31;58703;48.978;8.982;2023-12-14T15:04:45;7.35;99.99
71047;SHT31;58703;48.978;8.982;2023-12-14T15:07:10;7.35;99.99
71047;SHT31;58703;48.978;8.982;2023-12-14T15:09:36;7.32;99.99
71047;SHT31;58703;48.978;8.982;2023-12-14T15:12:02;7.28;99.99
71047;SHT31;58703;48.978;8.982;2023-12-14T15:14:27;7.26;99.99
71047;SHT31;58703;48.978;8.982;2023-12-14T15:16:54;7.23;99.99
71047;SHT31;58703;48.978;8.982;2023-12-14T15:19:20;7.23;99.97
71047;SHT31;58703;48.978;8.982;2023-12-14T15:21:45;7.26;99.99
71047;SHT31;58703;48.978;8.982;2023-12-14T15:24:11;7.17;99.99
71047;SHT31;58703;48.978;8.982;2023-12-14T15:26:36;7.11;99.99
71047;SHT31;58703;48.978;8.982;2023-12-14T15:29:02;7.11;99.99
71047;SHT31;58703;48.978;8.982;2023-12-14T15:31:29;7.11;99.99
71047;SHT31;58703;48.978;8.982;2023-12-14T15:33:54;7.10;99.99
71047;SHT31;58703;48.978;8.982;2023-12-14T15:36:20;7.11;99.99
71047;SHT31;58703;48.978;8.982;2023-12-14T15:38:46;7.14;99.99
71047;SHT31;58703;48.978;8.982;2023-12-14T15:41:12;7.16;99.99
71047;SHT31;58703;48.978;8.982;2023-12-14T15:43:38;7.21;99.99
71047;SHT31;58703;48.978;8.982;2023-12-14T15:46:04;7.23;99.99
71047;SHT31;58703;48.978;8.982;2023-12-14T15:48:32;7.24;99.99
71047;SHT31;58703;48.978;8.982;2023-12-14T15:50:58;7.23;99.99